Time;durP1;ratioP1;P1;durP2;ratioP2;P2;SDS_P1;SDS_P2;PMS_P1;PMS_P2;Temp;Humidity;BMP_temperature;BMP_pressure;BME280_temperature;BME280_humidity;BME280_pressure;Samples;Min_cycle;Max_cycle;Signal;HPM_P1;HPM_P2
2021/05/10 00:00:32;;;;;;;1999.90;999.90;;;;;;;22.22;56.94;-18496.22;4922980;29;20236;-30
2021/05/10 00:03:21;;;;;;;1999.90;999.90;;;;;;;21.93;57.20;-18488.66;4922915;29;20210;-30
2021/05/10 00:06:09;;;;;;;1999.90;999.90;;;;;;;22.23;56.88;-18496.47;4922703;29;20209;-30
2021/05/10 00:08:57;;;;;;;1999.90;999.90;;;;;;;22.28;56.79;-18497.66;4922862;29;20308;-30
2021/05/10 00:11:46;;;;;;;1999.90;999.90;;;;;;;22.14;56.39;-18494.09;4922524;29;20201;-30
2021/05/10 00:14:40;;;;;;;1999.90;999.90;;;;;;;22.11;57.13;-18493.31;4923081;29;20482;-30
2021/05/10 00:17:26;;;;;;;1999.90;999.90;;;;;;;21.95;57.12;-18489.06;4923390;29;20233;-30
2021/05/10 00:20:14;;;;;;;1999.90;999.90;;;;;;;22.20;56.25;-18495.69;4922715;29;20316;-30
2021/05/10 00:23:00;;;;;;;1999.90;999.90;;;;;;;22.17;57.58;-18494.91;4922591;29;20333;-30
2021/05/10 00:25:47;;;;;;;1999.90;999.90;;;;;;;21.95;57.82;-18489.06;4922676;29;20209;-30
2021/05/10 00:28:34;;;;;;;1999.90;999.90;;;;;;;22.09;57.74;-18492.78;4922738;29;20208;-30
2021/05/10 00:31:20;;;;;;;1999.90;999.90;;;;;;;22.01;56.75;-18490.66;4922839;29;20598;-30
2021/05/10 00:34:06;;;;;;;1999.90;999.90;;;;;;;22.05;56.98;-18491.59;4924428;29;20207;-30
2021/05/10 00:36:53;;;;;;;1999.90;999.90;;;;;;;22.31;56.25;-18498.47;4929242;29;20206;-30
2021/05/10 00:39:39;;;;;;;1999.90;999.90;;;;;;;22.15;55.87;-18494.22;4926983;29;20225;-30
2021/05/10 00:42:26;;;;;;;1999.90;999.90;;;;;;;22.08;56.49;-18492.38;4923638;29;20209;-30
2021/05/10 00:45:13;;;;;;;1999.90;999.90;;;;;;;22.18;55.76;-18495.03;4922082;29;20193;-30
2021/05/10 00:48:00;;;;;;;1999.90;999.90;;;;;;;22.21;56.41;-18495.94;4922391;29;20213;-30
2021/05/10 00:50:45;;;;;;;1999.90;999.90;;;;;;;22.21;56.59;-18495.81;4933711;29;20188;-30
2021/05/10 00:53:34;;;;;;;1999.90;999.90;;;;;;;21.98;57.36;-18490.00;4930388;29;20301;-30
2021/05/10 00:56:20;;;;;;;1999.90;999.90;;;;;;;21.93;57.57;-18488.66;4922247;29;20212;-30
2021/05/10 00:59:10;;;;;;;1999.90;999.90;;;;;;;21.91;57.82;-18488.00;4921905;29;20653;-30
2021/05/10 01:01:58;;;;;;;1999.90;999.90;;;;;;;21.95;57.83;-18489.19;4921838;29;20236;-31
2021/05/10 01:04:45;;;;;;;1999.90;999.90;;;;;;;21.86;57.91;-18486.69;4921739;29;20607;-30
2021/05/10 01:07:31;;;;;;;1999.90;999.90;;;;;;;21.94;58.23;-18488.94;4925172;29;20225;-30
2021/05/10 01:10:20;;;;;;;1999.90;999.90;;;;;;;21.98;57.21;-18489.88;4921776;29;20201;-31
2021/05/10 01:13:07;;;;;;;1999.90;999.90;;;;;;;22.01;57.10;-18490.66;4921958;29;20603;-30
2021/05/10 01:15:54;;;;;;;1999.90;999.90;;;;;;;21.85;57.25;-18486.56;4922142;29;20269;-30
2021/05/10 01:18:41;;;;;;;1999.90;999.90;;;;;;;21.77;58.04;-18484.44;4922069;29;20347;-30
2021/05/10 01:21:31;;;;;;;1999.90;999.90;;;;;;;22.05;58.30;-18491.72;4921400;29;20237;-30
2021/05/10 01:24:18;;;;;;;1999.90;999.90;;;;;;;22.03;57.79;-18491.19;4921446;29;20209;-30
2021/05/10 01:27:07;;;;;;;1999.90;999.90;;;;;;;22.07;58.16;-18492.13;4921651;29;20206;-31
2021/05/10 01:29:53;;;;;;;1999.90;999.90;;;;;;;22.08;56.65;-18492.50;4921108;29;20281;-31
2021/05/10 01:32:39;;;;;;;1999.90;999.90;;;;;;;22.04;57.20;-18491.31;4921445;29;20551;-30
2021/05/10 01:35:28;;;;;;;1999.90;999.90;;;;;;;22.07;57.10;-18492.25;4921176;29;20200;-29
2021/05/10 01:38:15;;;;;;;1999.90;999.90;;;;;;;22.04;57.99;-18491.31;4921194;29;20281;-31
2021/05/10 01:41:09;;;;;;;1999.90;999.90;;;;;;;22.08;57.31;-18492.38;4921214;29;20225;-31
2021/05/10 01:43:56;;;;;;;1999.90;999.90;;;;;;;21.95;57.68;-18489.06;4921484;29;20274;-31
2021/05/10 01:46:41;;;;;;;1999.90;999.90;;;;;;;21.85;58.00;-18486.56;4921295;29;20224;-31
2021/05/10 01:49:30;;;;;;;1999.90;999.90;;;;;;;21.50;61.93;-18477.28;4921423;29;20269;-31
2021/05/10 01:52:16;;;;;;;1999.90;999.90;;;;;;;21.31;64.03;-18472.53;4921435;29;20596;-31
2021/05/10 01:55:02;;;;;;;1999.90;999.90;;;;;;;21.15;65.76;-18468.28;4920731;29;20337;-31
2021/05/10 01:57:51;;;;;;;1999.90;999.90;;;;;;;20.85;67.83;-18460.34;4921049;29;20349;-31
2021/05/10 02:00:42;;;;;;;1999.90;999.90;;;;;;;20.73;67.68;-18457.16;4920701;29;20229;-30
2021/05/10 02:03:28;;;;;;;1999.90;999.90;;;;;;;20.91;65.88;-18461.94;4920815;29;20308;-30
2021/05/10 02:06:17;;;;;;;1999.90;999.90;;;;;;;20.98;65.84;-18463.91;4921168;29;20595;-31
2021/05/10 02:09:07;;;;;;;1999.90;999.90;;;;;;;21.29;64.79;-18471.88;4921085;29;20204;-30
2021/05/10 02:11:53;;;;;;;1999.90;999.90;;;;;;;20.98;65.35;-18463.78;4921367;29;20309;-30
2021/05/10 02:14:42;;;;;;;1999.90;999.90;;;;;;;21.16;64.94;-18468.56;4929601;29;20205;-31
2021/05/10 02:17:28;;;;;;;1999.90;999.90;;;;;;;21.00;65.82;-18464.31;4928728;29;20208;-30
2021/05/10 02:20:15;;;;;;;1999.90;999.90;;;;;;;21.07;66.74;-18466.03;4923090;29;20235;-30
2021/05/10 02:23:03;;;;;;;1999.90;999.90;;;;;;;20.91;66.54;-18462.06;4920955;29;20713;-30
2021/05/10 02:25:50;;;;;;;1999.90;999.90;;;;;;;20.78;67.45;-18458.63;4920553;29;20212;-31
2021/05/10 02:28:37;;;;;;;1999.90;999.90;;;;;;;20.74;67.87;-18457.56;4920469;29;20278;-30
2021/05/10 02:31:24;;;;;;;1999.90;999.90;;;;;;;20.85;67.69;-18460.34;4920419;29;20614;-30
2021/05/10 02:34:13;;;;;;;1999.90;999.90;;;;;;;20.75;68.16;-18457.81;4920817;29;20595;-30
2021/05/10 02:36:59;;;;;;;1999.90;999.90;;;;;;;20.60;68.32;-18453.97;4920558;29;20230;-30
2021/05/10 02:39:45;;;;;;;1999.90;999.90;;;;;;;20.68;68.53;-18455.84;4920902;29;20224;-30
2021/05/10 02:42:31;;;;;;;1999.90;999.90;;;;;;;20.51;68.95;-18451.47;4920973;29;20211;-30
2021/05/10 02:45:18;;;;;;;1999.90;999.90;;;;;;;20.61;69.64;-18454.09;4921550;29;20201;-30
2021/05/10 02:48:06;;;;;;;1999.90;999.90;;;;;;;20.48;69.80;-18450.66;4920420;29;20201;-31
2021/05/10 02:50:52;;;;;;;1999.90;999.90;;;;;;;20.52;69.95;-18451.84;4920672;29;20246;-30
2021/05/10 02:53:38;;;;;;;1999.90;999.90;;;;;;;20.47;70.53;-18450.53;4921189;29;20205;-30
2021/05/10 02:56:24;;;;;;;1999.90;999.90;;;;;;;20.48;70.01;-18450.66;4921653;29;20265;-30
2021/05/10 02:59:11;;;;;;;1999.90;999.90;;;;;;;20.63;69.59;-18454.63;4920735;29;20205;-30
2021/05/10 03:01:57;;;;;;;1999.90;999.90;;;;;;;20.62;69.41;-18454.50;4920990;29;20198;-30
2021/05/10 03:04:44;;;;;;;1999.90;999.90;;;;;;;20.66;70.22;-18455.44;4921934;29;20474;-30
2021/05/10 03:07:29;;;;;;;1999.90;999.90;;;;;;;20.69;69.89;-18456.22;4939345;29;20220;-30
2021/05/10 03:10:17;;;;;;;1999.90;999.90;;;;;;;20.62;70.35;-18454.50;4926473;29;20202;-30
2021/05/10 03:13:04;;;;;;;1999.90;999.90;;;;;;;20.75;70.69;-18457.81;4924259;29;20270;-30
2021/05/10 03:15:49;;;;;;;1999.90;999.90;;;;;;;20.70;70.38;-18456.38;4923759;29;20504;-30
2021/05/10 03:18:35;;;;;;;1999.90;999.90;;;;;;;20.59;70.10;-18453.72;4923845;29;20206;-30
2021/05/10 03:21:26;;;;;;;1999.90;999.90;;;;;;;20.58;71.23;-18453.44;4923640;29;20460;-30
2021/05/10 03:24:15;;;;;;;1999.90;999.90;;;;;;;20.52;71.29;-18451.72;4923421;29;20210;-30
2021/05/10 03:27:00;;;;;;;1999.90;999.90;;;;;;;20.50;71.31;-18451.19;4929653;29;20223;-30
2021/05/10 03:29:46;;;;;;;1999.90;999.90;;;;;;;20.50;70.38;-18451.19;4923245;29;20316;-30
2021/05/10 03:32:31;;;;;;;1999.90;999.90;;;;;;;20.56;69.58;-18452.91;4923804;29;20301;-30
2021/05/10 03:35:18;;;;;;;1999.90;999.90;;;;;;;20.65;69.80;-18455.16;4923789;29;20209;-30
2021/05/10 03:38:05;;;;;;;1999.90;999.90;;;;;;;20.65;69.87;-18455.16;4923506;29;20202;-30
2021/05/10 03:40:54;;;;;;;1999.90;999.90;;;;;;;20.75;69.00;-18457.81;4923505;29;20501;-30
2021/05/10 03:43:39;;;;;;;1999.90;999.90;;;;;;;21.00;68.27;-18464.31;4923189;29;20210;-30
2021/05/10 03:46:28;;;;;;;1999.90;999.90;;;;;;;20.86;68.05;-18460.72;4923316;29;20205;-30
2021/05/10 03:49:14;;;;;;;1999.90;999.90;;;;;;;20.76;68.32;-18458.09;4923070;29;20308;-30
2021/05/10 03:52:00;;;;;;;1999.90;999.90;;;;;;;20.99;67.48;-18464.03;4922931;29;20205;-30
2021/05/10 03:54:48;;;;;;;1999.90;999.90;;;;;;;20.92;66.64;-18462.31;4922937;29;20206;-30
2021/05/10 03:57:33;;;;;;;1999.90;999.90;;;;;;;21.18;66.06;-18468.94;4922538;29;20353;-31
2021/05/10 04:00:21;;;;;;;1999.90;999.90;;;;;;;21.14;65.61;-18468.03;4922931;29;20361;-30
2021/05/10 04:03:08;;;;;;;1999.90;999.90;;;;;;;20.99;66.62;-18464.03;4922866;29;20263;-30
2021/05/10 04:09:24;;;;;;;1999.90;999.90;;;;;;;20.66;68.52;-18455.44;4913529;29;20235;-30
2021/05/10 04:15:16;;;;;;;1999.90;999.90;;;;;;;20.37;70.79;-18447.88;4909333;29;20203;-30
2021/05/10 04:18:01;;;;;;;1999.90;999.90;;;;;;;20.42;71.19;-18449.22;4922251;29;20265;-30
2021/05/10 04:20:49;;;;;;;1999.90;999.90;;;;;;;20.41;71.79;-18448.81;4922169;29;20228;-30
2021/05/10 04:23:34;;;;;;;1999.90;999.90;;;;;;;20.49;71.23;-18450.94;4922334;29;20744;-30
2021/05/10 04:26:20;;;;;;;1999.90;999.90;;;;;;;20.55;71.00;-18452.53;4922575;29;20600;-30
2021/05/10 04:29:06;;;;;;;1999.90;999.90;;;;;;;20.48;70.98;-18450.66;4922059;29;20251;-30
2021/05/10 04:31:57;;;;;;;1999.90;999.90;;;;;;;20.61;70.67;-18454.25;4924241;29;20206;-30
2021/05/10 04:34:43;;;;;;;1999.90;999.90;;;;;;;20.50;70.95;-18451.34;4922969;29;20201;-31
2021/05/10 04:37:31;;;;;;;1999.90;999.90;;;;;;;20.57;71.45;-18453.19;4923188;29;20225;-30
2021/05/10 04:40:21;;;;;;;1999.90;999.90;;;;;;;20.50;72.09;-18451.19;4921609;29;20384;-30
2021/05/10 04:43:15;;;;;;;1999.90;999.90;;;;;;;20.65;70.05;-18455.16;4922932;29;20207;-31
2021/05/10 04:46:06;;;;;;;1999.90;999.90;;;;;;;20.78;70.63;-18458.47;4923123;29;20464;-30
2021/05/10 04:48:52;;;;;;;1999.90;999.90;;;;;;;20.78;69.25;-18458.47;4922300;29;20222;-30
2021/05/10 04:51:41;;;;;;;1999.90;999.90;;;;;;;21.12;69.16;-18467.50;4923490;29;20210;-30
2021/05/10 04:54:27;;;;;;;1999.90;999.90;;;;;;;21.20;65.50;-18469.59;4922604;29;20206;-30
2021/05/10 04:57:12;;;;;;;1999.90;999.90;;;;;;;21.19;65.65;-18469.34;4921396;29;20227;-30
2021/05/10 04:59:58;;;;;;;1999.90;999.90;;;;;;;21.25;64.41;-18470.81;4921241;29;20209;-30
2021/05/10 05:02:48;;;;;;;1999.90;999.90;;;;;;;21.57;66.76;-18479.16;4921455;29;20304;-31
2021/05/10 05:05:34;;;;;;;1999.90;999.90;;;;;;;21.48;64.10;-18476.75;4923763;29;20218;-31
2021/05/10 05:08:22;;;;;;;1999.90;999.90;;;;;;;21.57;63.21;-18479.28;4922929;29;20211;-30
2021/05/10 05:11:10;;;;;;;1999.90;999.90;;;;;;;22.00;62.38;-18490.53;4921536;29;20200;-30
2021/05/10 05:13:58;;;;;;;1999.90;999.90;;;;;;;21.81;62.23;-18485.38;4921991;29;20265;-30
2021/05/10 05:16:44;;;;;;;1999.90;999.90;;;;;;;21.87;62.84;-18486.94;4921145;29;20568;-31
2021/05/10 05:19:34;;;;;;;1999.90;999.90;;;;;;;21.81;62.55;-18485.50;4920678;29;20285;-30
2021/05/10 05:22:20;;;;;;;1999.90;999.90;;;;;;;22.17;61.19;-18494.75;4920817;29;20289;-30
2021/05/10 05:25:08;;;;;;;1999.90;999.90;;;;;;;21.96;61.31;-18489.34;4920952;29;20201;-30
2021/05/10 05:27:54;;;;;;;1999.90;999.90;;;;;;;21.87;62.70;-18486.94;4920563;29;20202;-30
2021/05/10 05:30:44;;;;;;;1999.90;999.90;;;;;;;21.70;61.97;-18482.59;4920331;29;20244;-31
2021/05/10 05:33:38;;;;;;;1999.90;999.90;;;;;;;22.17;61.51;-18494.91;4920604;29;20207;-31
2021/05/10 05:36:47;;;;;;;1999.90;999.90;;;;;;;21.95;60.70;-18489.19;4920822;29;20293;-30
2021/05/10 05:39:33;;;;;;;1999.90;999.90;;;;;;;22.07;61.00;-18492.13;4920350;29;20207;-30
2021/05/10 05:42:23;;;;;;;1999.90;999.90;;;;;;;21.99;62.08;-18490.13;4920646;29;20679;-30
2021/05/10 05:45:11;;;;;;;1999.90;999.90;;;;;;;22.22;61.29;-18496.09;4920031;29;20205;-31
2021/05/10 05:47:57;;;;;;;1999.90;999.90;;;;;;;22.13;60.59;-18493.72;4920471;29;20344;-30
2021/05/10 05:50:43;;;;;;;1999.90;999.90;;;;;;;22.21;62.06;-18495.81;4919942;29;20211;-31
2021/05/10 05:53:39;;;;;;;1999.90;999.90;;;;;;;21.90;62.05;-18487.88;4920227;29;20213;-30
2021/05/10 05:56:31;;;;;;;1999.90;999.90;;;;;;;22.07;61.90;-18492.25;4920228;29;20205;-30
2021/05/10 05:59:17;;;;;;;1999.90;999.90;;;;;;;22.39;62.06;-18500.44;4920557;29;20655;-31
2021/05/10 06:02:05;;;;;;;1999.90;999.90;;;;;;;22.10;62.18;-18493.03;4919764;29;20237;-31
2021/05/10 06:04:51;;;;;;;1999.90;999.90;;;;;;;22.38;60.89;-18500.31;4919477;29;20513;-30
2021/05/10 06:07:57;;;;;;;1999.90;999.90;;;;;;;22.19;60.95;-18495.28;4919908;29;20209;-31
2021/05/10 06:10:45;;;;;;;1999.90;999.90;;;;;;;22.31;61.14;-18498.47;4919961;29;20201;-30
2021/05/10 06:13:32;;;;;;;1999.90;999.90;;;;;;;22.23;62.88;-18496.34;4920335;29;20249;-30
2021/05/10 06:16:20;;;;;;;1999.90;999.90;;;;;;;22.10;62.50;-18493.03;4920190;29;20492;-30
2021/05/10 06:19:08;;;;;;;1999.90;999.90;;;;;;;22.10;63.17;-18493.03;4920321;29;20210;-30
2021/05/10 06:21:55;;;;;;;1999.90;999.90;;;;;;;22.15;63.63;-18494.22;4919519;29;20233;-30
2021/05/10 06:24:43;;;;;;;1999.90;999.90;;;;;;;21.87;64.51;-18487.09;4920248;29;20301;-30
2021/05/10 06:27:30;;;;;;;1999.90;999.90;;;;;;;22.17;65.36;-18494.75;4921252;29;20205;-31
2021/05/10 06:30:17;;;;;;;1999.90;999.90;;;;;;;22.03;65.17;-18491.19;4919907;29;20661;-30
2021/05/10 06:33:03;;;;;;;1999.90;999.90;;;;;;;22.06;65.11;-18491.97;4919320;29;20369;-30
2021/05/10 06:35:53;;;;;;;1999.90;999.90;;;;;;;22.00;66.36;-18490.53;4920448;29;20225;-31
2021/05/10 06:38:42;;;;;;;1999.90;999.90;;;;;;;22.06;66.65;-18491.97;4920624;29;20276;-31
2021/05/10 06:41:30;;;;;;;1999.90;999.90;;;;;;;22.29;65.80;-18497.94;4926757;29;20246;-30
2021/05/10 06:44:17;;;;;;;1999.90;999.90;;;;;;;22.18;65.29;-18495.16;4924155;29;20219;-31
2021/05/10 06:47:04;;;;;;;1999.90;999.90;;;;;;;22.39;64.90;-18500.44;4915711;29;20213;-31
2021/05/10 06:49:50;;;;;;;1999.90;999.90;;;;;;;22.17;65.32;-18494.91;4924128;29;20210;-31
2021/05/10 06:52:44;;;;;;;1999.90;999.90;;;;;;;22.37;65.16;-18499.91;4923661;29;20254;-31
2021/05/10 06:55:35;;;;;;;1999.90;999.90;;;;;;;22.32;64.96;-18498.88;4927043;29;20206;-31
2021/05/10 06:58:22;;;;;;;1999.90;999.90;;;;;;;22.29;65.58;-18497.94;4925142;29;20253;-32
2021/05/10 07:01:11;;;;;;;1999.90;999.90;;;;;;;22.42;65.82;-18501.38;4922770;29;20262;-40
2021/05/10 07:03:57;;;;;;;1999.90;999.90;;;;;;;22.51;65.54;-18503.63;4922496;29;20329;-38
2021/05/10 07:06:43;;;;;;;1999.90;999.90;;;;;;;22.70;64.71;-18508.66;4923142;29;20337;-37
2021/05/10 07:09:28;;;;;;;1999.90;999.90;;;;;;;23.47;62.58;-18528.59;4923388;29;20207;-37
2021/05/10 07:12:21;;;;;;;1999.90;999.90;;;;;;;23.53;62.94;-18530.19;4923747;29;20609;-39
2021/05/10 07:15:08;;;;;;;1999.90;999.90;;;;;;;23.53;62.03;-18530.19;4922653;29;20345;-35
2021/05/10 07:18:03;;;;;;;1999.90;999.90;;;;;;;24.51;58.01;-18555.69;4922398;29;20208;-37
2021/05/10 07:20:55;;;;;;;1999.90;999.90;;;;;;;23.11;63.01;-18519.34;4923209;29;20357;-35
2021/05/10 07:23:50;;;;;;;1999.90;999.90;;;;;;;23.33;63.61;-18525.03;4922949;29;20205;-38
2021/05/10 07:26:35;;;;;;;1999.90;999.90;;;;;;;22.87;65.33;-18513.00;4922568;29;20221;-37
2021/05/10 07:29:23;;;;;;;1999.90;999.90;;;;;;;22.69;66.60;-18508.38;4922640;29;20268;-38
2021/05/10 07:32:10;;;;;;;1999.90;999.90;;;;;;;22.45;66.73;-18502.16;4922171;29;20196;-35
2021/05/10 07:34:59;;;;;;;1999.90;999.90;;;;;;;22.85;66.35;-18512.63;4922362;29;20209;-38
2021/05/10 07:37:45;;;;;;;1999.90;999.90;;;;;;;22.90;66.24;-18513.94;4922277;29;20219;-35
2021/05/10 07:40:31;;;;;;;1999.90;999.90;;;;;;;23.05;66.51;-18517.63;4922718;29;20340;-36
2021/05/10 07:43:20;;;;;;;1999.90;999.90;;;;;;;23.10;67.37;-18519.09;4922782;29;20214;-38
2021/05/10 07:46:07;;;;;;;1999.90;999.90;;;;;;;23.41;66.27;-18527.03;4922244;29;20199;-36
2021/05/10 07:48:55;;;;;;;1999.90;999.90;;;;;;;23.41;65.50;-18527.16;4922381;29;20212;-35
2021/05/10 07:51:43;;;;;;;1999.90;999.90;;;;;;;24.17;64.18;-18546.97;4922600;29;20204;-36
2021/05/10 07:54:28;;;;;;;1999.90;999.90;;;;;;;25.37;57.71;-18578.25;4921474;29;20198;-34
2021/05/10 07:57:14;;;;;;;1999.90;999.90;;;;;;;24.91;57.75;-18566.22;4921767;29;20212;-35
2021/05/10 08:00:03;;;;;;;1999.90;999.90;;;;;;;25.15;56.90;-18572.31;4921733;29;20208;-35
2021/05/10 08:02:52;;;;;;;1999.90;999.90;;;;;;;25.75;55.35;-18588.00;4922395;29;20274;-34
2021/05/10 08:05:40;;;;;;;1999.90;999.90;;;;;;;24.47;58.51;-18554.63;4921906;29;20304;-35
2021/05/10 08:08:27;;;;;;;1999.90;999.90;;;;;;;26.51;53.12;-18607.63;4922084;29;20610;-36
2021/05/10 08:11:13;;;;;;;1999.90;999.90;;;;;;;25.17;57.16;-18572.84;4922077;29;20198;-35
2021/05/10 08:13:59;;;;;;;1999.90;999.90;;;;;;;25.71;53.07;-18586.94;4921619;29;20293;-39
2021/05/10 08:16:48;;;;;;;1999.90;999.90;;;;;;;26.22;52.14;-18600.25;4921739;29;20257;-37
2021/05/10 08:19:35;;;;;;;1999.90;999.90;;;;;;;25.95;51.92;-18593.13;4922099;29;20208;-36
2021/05/10 08:22:20;;;;;;;1999.90;999.90;;;;;;;25.59;52.23;-18583.91;4921503;29;20297;-37
2021/05/10 08:25:09;;;;;;;1999.90;999.90;;;;;;;25.97;53.18;-18593.66;4921827;29;20201;-37
2021/05/10 08:28:00;;;;;;;1999.90;999.90;;;;;;;25.87;51.54;-18591.16;4922096;29;20265;-35
2021/05/10 08:30:48;;;;;;;1999.90;999.90;;;;;;;25.41;52.40;-18579.16;4921622;29;20340;-35
2021/05/10 08:33:35;;;;;;;1999.90;999.90;;;;;;;25.12;55.28;-18571.50;4921460;29;20304;-32
2021/05/10 08:36:21;;;;;;;1999.90;999.90;;;;;;;26.54;51.93;-18608.53;4921688;29;20273;-35
2021/05/10 08:39:09;;;;;;;1999.90;999.90;;;;;;;26.78;51.87;-18614.72;4921530;29;20205;-35
2021/05/10 08:41:57;;;;;;;1999.90;999.90;;;;;;;26.26;50.57;-18601.16;4921730;29;20503;-37
2021/05/10 08:44:48;;;;;;;1999.90;999.90;;;;;;;25.96;51.71;-18593.53;4921530;29;20209;-35
2021/05/10 08:47:37;;;;;;;1999.90;999.90;;;;;;;26.28;50.75;-18601.69;4920952;29;20204;-33
2021/05/10 08:50:24;;;;;;;1999.90;999.90;;;;;;;25.96;50.92;-18593.53;4921306;29;20265;-35
2021/05/10 08:53:14;;;;;;;1999.90;999.90;;;;;;;25.67;50.24;-18585.88;4921139;29;20494;-36
2021/05/10 08:56:03;;;;;;;1999.90;999.90;;;;;;;26.60;50.04;-18610.00;4920489;29;20558;-34
2021/05/10 08:58:54;;;;;;;1999.90;999.90;;;;;;;26.25;50.85;-18600.91;4921055;29;20620;-35
2021/05/10 09:01:49;;;;;;;1999.90;999.90;;;;;;;25.72;50.72;-18587.34;4920966;29;20236;-35
2021/05/10 09:04:36;;;;;;;1999.90;999.90;;;;;;;25.33;51.94;-18577.06;4920737;29;20285;-37
2021/05/10 09:07:23;;;;;;;1999.90;999.90;;;;;;;27.02;48.00;-18620.91;4921072;29;20262;-37
2021/05/10 09:10:11;;;;;;;1999.90;999.90;;;;;;;28.05;46.56;-18647.75;4920595;29;20205;-37
2021/05/10 09:12:57;;;;;;;1999.90;999.90;;;;;;;27.79;46.06;-18641.03;4921267;29;20248;-38
2021/05/10 09:15:45;;;;;;;1999.90;999.90;;;;;;;26.87;49.31;-18616.97;4921018;29;20202;-34
2021/05/10 09:18:32;;;;;;;1999.90;999.90;;;;;;;27.98;45.51;-18645.91;4920442;29;20206;-35
2021/05/10 09:21:22;;;;;;;1999.90;999.90;;;;;;;28.07;46.22;-18648.28;4920836;29;20229;-36
2021/05/10 09:24:27;;;;;;;1999.90;999.90;;;;;;;28.07;44.02;-18648.16;4920561;29;20220;-37
2021/05/10 09:27:30;;;;;;;1999.90;999.90;;;;;;;28.23;42.96;-18652.34;4920584;29;20288;-33
2021/05/10 09:30:22;;;;;;;1999.90;999.90;;;;;;;27.10;46.11;-18623.03;4920458;29;20415;-33
2021/05/10 09:33:21;;;;;;;1999.90;999.90;;;;;;;26.31;47.61;-18602.63;4920225;29;20288;-34
2021/05/10 09:36:07;;;;;;;1999.90;999.90;;;;;;;24.92;50.92;-18566.38;4920825;29;20249;-34
2021/05/10 09:38:56;;;;;;;1999.90;999.90;;;;;;;26.84;47.91;-18616.31;4920138;29;20200;-32
2021/05/10 09:41:58;;;;;;;1999.90;999.90;;;;;;;25.91;48.54;-18592.06;4920404;29;20651;-37
2021/05/10 09:44:46;;;;;;;1999.90;999.90;;;;;;;25.44;51.74;-18579.81;4920362;29;20201;-35
2021/05/10 09:47:33;;;;;;;1999.90;999.90;;;;;;;25.79;51.54;-18588.91;4920287;29;20280;-34
2021/05/10 09:50:32;;;;;;;1999.90;999.90;;;;;;;25.63;52.97;-18584.97;4920766;29;20277;-37
2021/05/10 09:53:26;;;;;;;1999.90;999.90;;;;;;;24.89;53.78;-18565.72;4920219;29;20275;-36
2021/05/10 09:56:29;;;;;;;1999.90;999.90;;;;;;;25.86;49.57;-18590.75;4920405;29;20234;-36
2021/05/10 09:59:17;;;;;;;1999.90;999.90;;;;;;;27.03;48.66;-18621.31;4919793;29;20308;-39
2021/05/10 10:02:11;;;;;;;1999.90;999.90;;;;;;;26.77;47.56;-18614.47;4919965;29;20237;-34
2021/05/10 10:04:57;;;;;;;1999.90;999.90;;;;;;;25.80;50.60;-18589.31;4920158;29;20205;-38
2021/05/10 10:07:44;;;;;;;1999.90;999.90;;;;;;;26.92;48.77;-18618.28;4920180;29;20592;-32
2021/05/10 10:10:31;;;;;;;1999.90;999.90;;;;;;;27.63;48.36;-18636.84;4920025;29;20228;-34
2021/05/10 10:13:20;;;;;;;1999.90;999.90;;;;;;;26.82;48.94;-18615.78;4920139;29;20201;-34
2021/05/10 10:16:08;;;;;;;1999.90;999.90;;;;;;;25.36;53.11;-18577.84;4920431;29;20202;-33
2021/05/10 10:18:58;;;;;;;1999.90;999.90;;;;;;;25.69;54.71;-18586.41;4924399;29;20366;-34
2021/05/10 10:21:44;;;;;;;1999.90;999.90;;;;;;;25.15;55.18;-18572.31;4924108;29;20702;-38
2021/05/10 10:24:31;;;;;;;1999.90;999.90;;;;;;;24.94;58.42;-18566.91;4923710;29;20374;-37
2021/05/10 10:27:41;;;;;;;1999.90;999.90;;;;;;;25.60;55.45;-18584.03;4923097;29;20300;-33
2021/05/10 10:30:32;;;;;;;1999.90;999.90;;;;;;;25.33;56.03;-18577.19;4923501;29;20244;-35
2021/05/10 10:33:28;;;;;;;1999.90;999.90;;;;;;;24.22;60.43;-18548.28;4923610;29;20273;-32
2021/05/10 10:36:18;;;;;;;1999.90;999.90;;;;;;;23.42;63.84;-18527.28;4923131;29;20218;-36
2021/05/10 10:39:11;;;;;;;1999.90;999.90;;;;;;;22.93;65.04;-18514.59;4923239;29;20197;-35
2021/05/10 10:42:02;;;;;;;1999.90;999.90;;;;;;;23.08;66.96;-18518.44;4923600;29;20258;-34
2021/05/10 10:44:59;;;;;;;1999.90;999.90;;;;;;;23.48;63.54;-18529.00;4923394;29;20209;-37
2021/05/10 10:47:53;;;;;;;1999.90;999.90;;;;;;;24.64;57.76;-18559.09;4923386;29;20204;-35
2021/05/10 10:50:58;;;;;;;1999.90;999.90;;;;;;;23.65;62.00;-18533.50;4924030;29;20225;-35
2021/05/10 10:53:49;;;;;;;1999.90;999.90;;;;;;;23.86;62.61;-18538.78;4923317;29;20273;-36
2021/05/10 10:56:51;;;;;;;1999.90;999.90;;;;;;;23.29;63.20;-18523.97;4922962;29;20635;-36
2021/05/10 10:59:51;;;;;;;1999.90;999.90;;;;;;;24.25;61.24;-18548.94;4921558;29;20484;-38
2021/05/10 11:02:44;;;;;;;1999.90;999.90;;;;;;;23.85;61.12;-18538.50;4911179;29;20347;-35
2021/05/10 11:05:31;;;;;;;1999.90;999.90;;;;;;;23.98;58.98;-18541.94;4916154;29;20288;-36
2021/05/10 11:08:40;;;;;;;1999.90;999.90;;;;;;;24.14;58.72;-18546.19;4922221;29;20308;-35
2021/05/10 11:11:41;;;;;;;1999.90;999.90;;;;;;;24.83;56.54;-18564.13;4907011;29;20563;-38
2021/05/10 11:14:42;;;;;;;1999.90;999.90;;;;;;;24.45;58.21;-18554.09;4922046;29;20197;-36
2021/05/10 11:17:54;;;;;;;1999.90;999.90;;;;;;;24.77;55.14;-18562.53;4922150;29;20212;-39
2021/05/10 11:20:46;;;;;;;1999.90;999.90;;;;;;;23.96;59.45;-18541.41;4922722;29;20269;-36
2021/05/10 11:23:39;;;;;;;1999.90;999.90;;;;;;;24.11;60.70;-18545.38;4922804;29;20225;-37
2021/05/10 11:26:44;;;;;;;1999.90;999.90;;;;;;;24.55;56.89;-18556.75;4915075;29;20202;-34
2021/05/10 11:29:49;;;;;;;1999.90;999.90;;;;;;;25.68;54.71;-18586.28;4920555;29;20240;-36
2021/05/10 11:32:38;;;;;;;1999.90;999.90;;;;;;;25.36;55.88;-18577.84;4922850;29;20599;-36
2021/05/10 11:35:27;;;;;;;1999.90;999.90;;;;;;;26.12;53.18;-18597.63;4920860;29;20494;-38
2021/05/10 11:38:18;;;;;;;1999.90;999.90;;;;;;;26.19;53.93;-18599.44;4922196;29;20206;-38
2021/05/10 11:41:04;;;;;;;1999.90;999.90;;;;;;;25.27;56.75;-18575.47;4921527;29;20360;-34
2021/05/10 11:43:50;;;;;;;1999.90;999.90;;;;;;;24.76;55.90;-18562.28;4921864;29;20202;-36
2021/05/10 11:46:38;;;;;;;1999.90;999.90;;;;;;;24.29;58.28;-18550.13;4921562;29;20208;-35
2021/05/10 11:49:31;;;;;;;1999.90;999.90;;;;;;;24.06;59.48;-18544.06;4921754;29;20209;-39
2021/05/10 11:52:19;;;;;;;1999.90;999.90;;;;;;;23.45;61.08;-18528.22;4921548;29;20205;-36
2021/05/10 11:55:05;;;;;;;1999.90;999.90;;;;;;;23.04;61.61;-18517.50;4921849;29;20201;-35
2021/05/10 11:57:56;;;;;;;1999.90;999.90;;;;;;;23.07;62.63;-18518.16;4922229;29;20203;-38
2021/05/10 12:00:51;;;;;;;1999.90;999.90;;;;;;;22.72;61.96;-18509.19;4921271;29;20242;-33
2021/05/10 12:03:41;;;;;;;1999.90;999.90;;;;;;;22.30;62.89;-18498.34;4914328;29;20560;-35
2021/05/10 12:06:31;;;;;;;1999.90;999.90;;;;;;;22.29;63.12;-18498.06;4922089;29;20515;-36
2021/05/10 12:09:35;;;;;;;1999.90;999.90;;;;;;;22.12;64.25;-18493.56;4921907;29;20629;-37
2021/05/10 12:12:28;;;;;;;1999.90;999.90;;;;;;;21.76;64.20;-18484.19;4919083;29;20295;-39
2021/05/10 12:15:17;;;;;;;1999.90;999.90;;;;;;;21.75;65.29;-18483.78;4921819;29;20208;-38
2021/05/10 12:18:04;;;;;;;1999.90;999.90;;;;;;;21.72;65.72;-18483.13;4921755;29;20206;-38
2021/05/10 12:20:51;;;;;;;1999.90;999.90;;;;;;;22.41;65.28;-18500.97;4920939;29;20345;-34
2021/05/10 12:23:38;;;;;;;1999.90;999.90;;;;;;;23.29;62.10;-18523.97;4921893;29;20216;-40
2021/05/10 12:26:27;;;;;;;1999.90;999.90;;;;;;;23.25;60.29;-18522.94;4922283;29;20718;-38
2021/05/10 12:29:15;;;;;;;1999.90;999.90;;;;;;;24.47;58.05;-18554.63;4921296;29;20305;-35